Asbury Park, New Jersey
Current Conditions -  °F | °C
As of 9:55 PM on Sunday 21 Dec 2014 (Local Time) from KBLM Reporting Station
Overcast Overcast  
Wind Chill:   Ceiling: 2300
Heat Index:   Visibility: 10mi
Dew Point: -4°   Wind: 0mph
Humidity: 65%   Direction: NA
Pressure: 30.32"   Gusts: NA
Location:  40.22°N, 74.01°W
Report Text: KBLM 220255Z AUTO 00000KT 10SM OVC023 02/M04 A3032 RMK AO1 54000
Loading
Personal Weather Stations






























Interactive Weather Map New forecast layout! Learn more

10-Day Weather Forecast

Advertisements
Track Severe Weather on mobile